Time;durP1;ratioP1;P1;durP2;ratioP2;P2;SDS_P1;SDS_P2;PMS_P1;PMS_P2;Temp;Humidity;BMP_temperature;BMP_pressure;BME280_temperature;BME280_humidity;BME280_pressure;Samples;Min_cycle;Max_cycle;Signal;HPM_P1;HPM_P2
2023/10/06 00:01:40;;;;;;;9.63;4.93;;;9.80;99.90;;;;;;5101335;28;20684;-54
2023/10/06 00:04:07;;;;;;;9.33;4.23;;;9.70;99.90;;;;;;5104351;28;20291;-55
2023/10/06 00:06:37;;;;;;;9.80;5.00;;;9.70;99.90;;;;;;5105117;28;20627;-57
2023/10/06 00:09:06;;;;;;;12.37;4.80;;;9.70;99.90;;;;;;5103265;28;20223;-54
2023/10/06 00:11:34;;;;;;;8.37;4.90;;;9.70;99.90;;;;;;5101728;28;20336;-54
2023/10/06 00:14:07;;;;;;;7.73;4.50;;;9.60;99.90;;;;;;5102977;28;20261;-54
2023/10/06 00:16:39;;;;;;;9.83;4.73;;;9.70;99.90;;;;;;5105168;28;20219;-54
2023/10/06 00:19:19;;;;;;;7.63;4.80;;;9.60;99.90;;;;;;5103000;28;20235;-55
2023/10/06 00:21:47;;;;;;;11.50;5.30;;;9.60;99.90;;;;;;5101540;28;20204;-54
2023/10/06 00:24:15;;;;;;;9.37;4.97;;;9.50;99.90;;;;;;5104752;28;20260;-54
2023/10/06 00:26:43;;;;;;;8.47;4.53;;;9.60;99.90;;;;;;5104595;28;20264;-55
2023/10/06 00:29:20;;;;;;;13.37;4.83;;;9.60;99.90;;;;;;5102001;28;20231;-55
2023/10/06 00:31:48;;;;;;;8.00;4.67;;;9.50;99.90;;;;;;5101085;28;20291;-55
2023/10/06 00:34:19;;;;;;;8.77;4.33;;;9.50;99.90;;;;;;5105025;28;20207;-57
2023/10/06 00:36:51;;;;;;;8.30;4.53;;;9.40;99.90;;;;;;5104757;28;20207;-54
2023/10/06 00:39:22;;;;;;;9.80;4.40;;;9.60;99.90;;;;;;5092508;28;20216;-53
2023/10/06 00:41:55;;;;;;;11.63;5.03;;;9.40;99.90;;;;;;5092656;28;20253;-56
2023/10/06 00:44:23;;;;;;;10.17;4.30;;;9.40;99.90;;;;;;5092634;28;20238;-54
2023/10/06 00:46:50;;;;;;;9.87;4.57;;;9.30;99.90;;;;;;5100776;28;20304;-54
2023/10/06 00:49:18;;;;;;;10.53;4.40;;;9.30;99.90;;;;;;5104278;28;20223;-54
2023/10/06 00:51:45;;;;;;;8.97;4.53;;;9.20;99.90;;;;;;5104248;28;20292;-54
2023/10/06 00:54:12;;;;;;;10.93;4.83;;;9.10;99.90;;;;;;5101508;28;20208;-54
2023/10/06 00:56:39;;;;;;;9.20;4.77;;;9.10;99.90;;;;;;5100786;28;20207;-54
2023/10/06 00:59:07;;;;;;;9.13;4.20;;;9.20;99.90;;;;;;5102382;28;20277;-56
2023/10/06 01:01:34;;;;;;;9.43;4.67;;;9.20;99.90;;;;;;5104437;28;20199;-55
2023/10/06 01:04:01;;;;;;;12.13;5.10;;;9.10;99.90;;;;;;5102733;28;20203;-55
2023/10/06 01:06:33;;;;;;;15.93;5.17;;;9.10;99.90;;;;;;5100329;28;20212;-54
2023/10/06 01:09:09;;;;;;;10.37;5.13;;;9.10;99.90;;;;;;5101587;28;20697;-54
2023/10/06 01:11:41;;;;;;;8.37;4.83;;;9.10;99.90;;;;;;5103575;28;20331;-56
2023/10/06 01:14:09;;;;;;;10.53;5.00;;;9.10;99.90;;;;;;5101703;28;20213;-56
2023/10/06 01:16:36;;;;;;;11.47;5.37;;;9.10;99.90;;;;;;5100265;28;20262;-57
2023/10/06 01:19:14;;;;;;;9.67;5.43;;;9.10;99.90;;;;;;5101735;28;20247;-55
2023/10/06 01:21:41;;;;;;;10.83;4.87;;;9.10;99.90;;;;;;5103855;28;20207;-54
2023/10/06 01:24:13;;;;;;;10.87;5.10;;;9.10;99.90;;;;;;5101323;28;20211;-55
2023/10/06 01:26:42;;;;;;;12.37;4.80;;;9.10;99.90;;;;;;5100110;28;20224;-54
2023/10/06 01:29:11;;;;;;;10.63;4.90;;;9.00;99.90;;;;;;5102421;28;20224;-54
2023/10/06 01:31:39;;;;;;;9.57;5.07;;;9.10;99.90;;;;;;5103588;28;20199;-55
2023/10/06 01:34:08;;;;;;;9.60;4.83;;;9.10;99.90;;;;;;5101654;28;20204;-55
2023/10/06 01:36:35;;;;;;;9.93;4.80;;;9.00;99.90;;;;;;5099828;28;20200;-54
2023/10/06 01:39:05;;;;;;;8.80;4.37;;;9.00;99.90;;;;;;5101182;28;20577;-53
2023/10/06 01:41:34;;;;;;;11.60;5.27;;;8.90;99.90;;;;;;5103615;28;20202;-54
2023/10/06 01:44:01;;;;;;;8.97;4.93;;;8.90;99.90;;;;;;5102349;28;20203;-54
2023/10/06 01:46:29;;;;;;;10.60;5.10;;;8.90;99.90;;;;;;5099587;28;20231;-55
2023/10/06 01:48:56;;;;;;;9.70;4.87;;;8.80;99.90;;;;;;5100356;28;20228;-53
2023/10/06 01:51:23;;;;;;;12.10;5.30;;;8.80;99.90;;;;;;5103683;28;20282;-54
2023/10/06 01:53:50;;;;;;;10.30;4.50;;;8.80;99.90;;;;;;5103401;28;20210;-54
2023/10/06 01:56:22;;;;;;;8.47;5.00;;;8.80;99.90;;;;;;5099848;28;20197;-56
2023/10/06 01:58:51;;;;;;;8.97;4.60;;;8.90;99.90;;;;;;5099718;28;20227;-53
2023/10/06 02:01:19;;;;;;;7.77;4.60;;;9.00;99.90;;;;;;5102839;28;20200;-54
2023/10/06 02:03:46;;;;;;;9.93;5.13;;;8.80;99.90;;;;;;5103482;28;20199;-54
2023/10/06 02:06:16;;;;;;;9.73;5.07;;;8.80;99.90;;;;;;5100443;28;20246;-54
2023/10/06 02:08:44;;;;;;;11.87;5.53;;;8.80;99.90;;;;;;5099668;28;20246;-54
2023/10/06 02:11:12;;;;;;;11.83;5.30;;;8.80;99.90;;;;;;5102506;28;20204;-53
2023/10/06 02:13:39;;;;;;;7.77;4.63;;;8.80;99.90;;;;;;5103079;28;20203;-56
2023/10/06 02:16:08;;;;;;;9.67;5.07;;;8.70;99.90;;;;;;5101010;28;20218;-54
2023/10/06 02:18:40;;;;;;;8.73;5.03;;;8.70;99.90;;;;;;5099158;28;20299;-55
2023/10/06 02:21:12;;;;;;;8.60;4.97;;;8.70;99.90;;;;;;5101432;28;20204;-57
2023/10/06 02:23:41;;;;;;;11.23;5.50;;;8.70;99.90;;;;;;5102244;28;20249;-54
2023/10/06 02:26:09;;;;;;;11.53;5.50;;;8.70;99.90;;;;;;5100675;28;20631;-55
2023/10/06 02:28:43;;;;;;;13.33;5.60;;;8.70;99.90;;;;;;5099134;28;20224;-54
2023/10/06 02:31:11;;;;;;;9.47;5.07;;;8.70;99.90;;;;;;5101555;28;20269;-55
2023/10/06 02:33:39;;;;;;;10.13;4.90;;;8.60;99.90;;;;;;5102964;28;20206;-54
2023/10/06 02:36:15;;;;;;;8.93;5.10;;;8.60;99.90;;;;;;5101024;28;20195;-54
2023/10/06 02:38:46;;;;;;;8.20;4.70;;;8.60;99.90;;;;;;5098805;28;20672;-54
2023/10/06 02:41:18;;;;;;;11.57;5.40;;;8.60;99.90;;;;;;5101571;28;20200;-54
2023/10/06 02:43:46;;;;;;;9.63;5.23;;;8.60;99.90;;;;;;5102845;28;20276;-55
2023/10/06 02:46:15;;;;;;;10.13;5.33;;;8.60;99.90;;;;;;5099845;28;20600;-54
2023/10/06 02:48:48;;;;;;;10.70;4.97;;;8.60;99.90;;;;;;5098859;28;20228;-54
2023/10/06 02:51:28;;;;;;;8.20;4.60;;;8.60;99.90;;;;;;5102321;28;20257;-54
2023/10/06 02:54:09;;;;;;;9.87;4.87;;;8.60;99.90;;;;;;5102504;28;20579;-55
2023/10/06 02:56:36;;;;;;;13.53;5.67;;;8.60;99.90;;;;;;5098834;28;20196;-54
2023/10/06 02:59:20;;;;;;;8.33;5.13;;;8.60;99.90;;;;;;5100130;28;20248;-54
2023/10/06 03:01:52;;;;;;;11.97;5.60;;;8.60;99.90;;;;;;5102345;28;20199;-55
2023/10/06 03:04:21;;;;;;;12.50;5.20;;;8.60;99.90;;;;;;5099134;28;20211;-54
2023/10/06 03:06:53;;;;;;;10.27;5.53;;;8.60;99.90;;;;;;5098778;28;20216;-56
2023/10/06 03:09:20;;;;;;;10.43;5.60;;;8.60;99.90;;;;;;5101923;28;20224;-54
2023/10/06 03:11:49;;;;;;;10.27;6.17;;;8.60;99.90;;;;;;5102171;28;20597;-54
2023/10/06 03:14:16;;;;;;;10.03;5.20;;;8.60;99.90;;;;;;5099377;28;20208;-54
2023/10/06 03:16:43;;;;;;;9.03;5.33;;;8.60;99.90;;;;;;5098654;28;20228;-54
2023/10/06 03:19:12;;;;;;;10.30;5.53;;;8.50;99.90;;;;;;5100493;28;20582;-54
2023/10/06 03:21:45;;;;;;;12.67;5.63;;;8.60;99.90;;;;;;5102604;28;20210;-54
2023/10/06 03:24:19;;;;;;;10.17;5.93;;;8.60;99.90;;;;;;5100090;28;20685;-54
2023/10/06 03:26:46;;;;;;;12.00;5.70;;;8.50;99.90;;;;;;5098687;28;20216;-56
2023/10/06 03:29:28;;;;;;;10.20;5.10;;;8.50;99.90;;;;;;5101149;28;20282;-54
2023/10/06 03:31:56;;;;;;;8.30;5.23;;;8.50;99.90;;;;;;5102154;28;20204;-55
2023/10/06 03:34:26;;;;;;;9.83;5.47;;;8.50;99.90;;;;;;5091619;28;20670;-53
2023/10/06 03:36:52;;;;;;;10.07;5.57;;;8.50;99.90;;;;;;5102165;28;20560;-56
2023/10/06 03:39:27;;;;;;;7.63;5.60;;;8.50;99.90;;;;;;5101980;28;20598;-54
2023/10/06 03:41:59;;;;;;;12.53;6.37;;;8.50;99.90;;;;;;5111054;28;20290;-54
2023/10/06 03:44:29;;;;;;;35.57;23.07;;;8.60;99.90;;;;;;5093968;28;20204;-54
2023/10/06 03:46:57;;;;;;;17.53;11.23;;;8.60;99.90;;;;;;5093574;28;20299;-53
2023/10/06 03:49:26;;;;;;;13.27;6.83;;;8.60;99.90;;;;;;5106219;28;20229;-54
2023/10/06 03:51:55;;;;;;;10.27;5.83;;;8.60;99.90;;;;;;5105738;28;20640;-54
2023/10/06 03:54:22;;;;;;;11.60;5.37;;;8.60;99.90;;;;;;5094163;28;20215;-55
2023/10/06 03:56:49;;;;;;;8.53;4.97;;;8.60;99.90;;;;;;5093415;28;20291;-53
2023/10/06 03:59:16;;;;;;;17.37;9.90;;;8.60;99.90;;;;;;5104671;28;20228;-54
2023/10/06 04:01:44;;;;;;;9.27;4.37;;;8.60;99.90;;;;;;5105492;28;20338;-55
2023/10/06 04:04:12;;;;;;;8.90;5.27;;;8.60;99.90;;;;;;5103472;28;20246;-56
2023/10/06 04:06:40;;;;;;;10.90;6.77;;;8.60;99.90;;;;;;5101181;28;20289;-55
2023/10/06 04:09:08;;;;;;;11.33;5.40;;;8.60;99.90;;;;;;5102636;28;20221;-54
2023/10/06 04:11:35;;;;;;;9.40;5.17;;;8.60;99.90;;;;;;5105165;28;20243;-56
2023/10/06 04:14:02;;;;;;;13.97;7.00;;;8.60;99.90;;;;;;5104214;28;20203;-55
2023/10/06 04:16:30;;;;;;;10.80;5.00;;;8.60;99.90;;;;;;5102635;28;20200;-58
2023/10/06 04:18:57;;;;;;;12.83;5.90;;;8.60;99.90;;;;;;5101710;28;20269;-54
2023/10/06 04:21:24;;;;;;;9.10;5.20;;;8.60;99.90;;;;;;5105530;28;20200;-54
2023/10/06 04:23:52;;;;;;;8.90;5.47;;;8.60;99.90;;;;;;5105034;28;20196;-54
2023/10/06 04:26:19;;;;;;;8.20;5.07;;;8.60;99.90;;;;;;5104815;28;20294;-54
2023/10/06 04:28:47;;;;;;;12.40;5.80;;;8.60;99.90;;;;;;5104719;28;20226;-57
2023/10/06 04:31:15;;;;;;;9.77;5.37;;;8.60;99.90;;;;;;5102508;28;20207;-54
2023/10/06 04:33:41;;;;;;;10.60;5.23;;;8.60;99.90;;;;;;5101141;28;20673;-56
2023/10/06 04:36:09;;;;;;;12.30;7.67;;;8.60;99.90;;;;;;5102541;28;20204;-54
2023/10/06 04:38:38;;;;;;;12.63;6.37;;;8.60;99.90;;;;;;5104348;28;20219;-54
2023/10/06 04:41:08;;;;;;;13.17;7.57;;;8.60;99.90;;;;;;5103534;28;20257;-54
2023/10/06 04:43:35;;;;;;;10.90;6.47;;;8.60;99.90;;;;;;5097725;28;20221;-54
2023/10/06 04:46:05;;;;;;;13.47;6.40;;;8.60;99.90;;;;;;5102977;28;20440;-56
2023/10/06 04:48:32;;;;;;;11.47;6.10;;;8.60;99.90;;;;;;5100934;28;20718;-53
2023/10/06 04:51:02;;;;;;;11.77;7.10;;;8.60;99.90;;;;;;5100990;28;20204;-57
2023/10/06 04:53:29;;;;;;;9.03;5.60;;;8.60;99.90;;;;;;5104479;28;20202;-54
2023/10/06 04:55:57;;;;;;;17.63;12.73;;;8.60;99.90;;;;;;5104385;28;20222;-54
2023/10/06 04:58:25;;;;;;;12.07;5.63;;;8.50;99.90;;;;;;5100624;28;20228;-54
2023/10/06 05:00:53;;;;;;;10.20;5.10;;;8.60;99.90;;;;;;5101010;28;20208;-54
2023/10/06 05:03:20;;;;;;;9.70;4.63;;;8.60;99.90;;;;;;5103526;28;20203;-57
2023/10/06 05:05:50;;;;;;;11.87;6.33;;;8.60;99.90;;;;;;5103798;28;20199;-54
2023/10/06 05:08:16;;;;;;;9.77;5.00;;;8.60;99.90;;;;;;5101089;28;20206;-55
2023/10/06 05:10:43;;;;;;;9.07;5.70;;;8.60;99.90;;;;;;5100677;28;20212;-54
2023/10/06 05:13:10;;;;;;;9.97;5.33;;;8.50;99.90;;;;;;5101810;28;20223;-54
2023/10/06 05:15:41;;;;;;;13.13;6.97;;;8.50;99.90;;;;;;5103921;28;20216;-55
2023/10/06 05:18:13;;;;;;;10.33;7.43;;;8.50;99.90;;;;;;5102464;28;20268;-54
2023/10/06 05:20:39;;;;;;;10.67;5.97;;;8.50;99.90;;;;;;5100240;28;20287;-54
2023/10/06 05:23:09;;;;;;;12.47;7.83;;;8.50;99.90;;;;;;5101316;28;20216;-54
2023/10/06 05:25:36;;;;;;;10.43;6.77;;;8.40;99.90;;;;;;5103671;28;20280;-54
2023/10/06 05:28:04;;;;;;;15.77;6.80;;;8.40;99.90;;;;;;5102822;28;20228;-54
2023/10/06 05:30:32;;;;;;;15.93;9.20;;;8.40;99.90;;;;;;5100264;28;20200;-56
2023/10/06 05:33:00;;;;;;;9.50;5.80;;;8.40;99.90;;;;;;5100092;28;20622;-53
2023/10/06 05:35:29;;;;;;;13.90;8.77;;;8.40;99.90;;;;;;5099969;28;20196;-54
2023/10/06 05:37:55;;;;;;;11.73;8.23;;;8.30;99.90;;;;;;5099904;28;20253;-54
2023/10/06 05:40:22;;;;;;;9.90;6.43;;;8.30;99.90;;;;;;5102573;28;20220;-53
2023/10/06 05:42:50;;;;;;;7.53;5.40;;;8.30;99.90;;;;;;5103401;28;20231;-54
2023/10/06 05:45:18;;;;;;;7.60;5.53;;;8.40;99.90;;;;;;5100911;28;20294;-55
2023/10/06 05:47:46;;;;;;;9.37;6.07;;;8.40;99.90;;;;;;5099565;28;20216;-55
2023/10/06 05:50:18;;;;;;;10.67;6.00;;;8.40;99.90;;;;;;5101302;28;20228;-53
2023/10/06 05:52:51;;;;;;;8.40;6.40;;;8.40;99.90;;;;;;5103090;28;20211;-57
2023/10/06 05:55:19;;;;;;;10.10;6.07;;;8.40;99.90;;;;;;5100257;28;20218;-54
2023/10/06 05:57:52;;;;;;;14.47;8.60;;;8.40;99.90;;;;;;5098457;28;20554;-54
2023/10/06 06:00:24;;;;;;;11.13;7.33;;;8.50;99.90;;;;;;5102128;28;20235;-57
2023/10/06 06:02:52;;;;;;;17.23;9.03;;;8.60;99.90;;;;;;5102993;28;20219;-56
2023/10/06 06:05:21;;;;;;;15.30;8.17;;;8.60;99.90;;;;;;5100152;28;20605;-56
2023/10/06 06:07:51;;;;;;;11.63;7.33;;;8.60;99.90;;;;;;5099220;28;20248;-55
2023/10/06 06:10:18;;;;;;;8.80;6.03;;;8.50;99.90;;;;;;5101823;28;20243;-55
2023/10/06 06:12:47;;;;;;;10.27;6.50;;;8.80;99.90;;;;;;5103038;28;20204;-54
2023/10/06 06:15:14;;;;;;;10.10;6.53;;;8.80;99.90;;;;;;5101147;28;20200;-55
2023/10/06 06:17:41;;;;;;;9.37;6.20;;;9.00;99.90;;;;;;5099377;28;20203;-55
2023/10/06 06:20:14;;;;;;;8.30;5.33;;;9.10;99.90;;;;;;5100239;28;20720;-56
2023/10/06 06:22:47;;;;;;;11.10;6.73;;;9.60;99.90;;;;;;5102927;28;20672;-55
2023/10/06 06:25:15;;;;;;;12.27;6.73;;;10.30;99.90;;;;;;5100822;28;20204;-55
2023/10/06 06:27:42;;;;;;;11.53;5.30;;;11.00;99.90;;;;;;5099186;28;20226;-56
2023/10/06 06:30:10;;;;;;;9.07;5.37;;;11.70;99.90;;;;;;5099926;28;20713;-55
2023/10/06 06:32:37;;;;;;;7.60;4.87;;;12.40;99.90;;;;;;5102674;28;20257;-55
2023/10/06 06:35:05;;;;;;;5.97;4.13;;;13.30;99.90;;;;;;5102596;28;20207;-55
2023/10/06 06:37:32;;;;;;;5.40;3.90;;;14.20;99.90;;;;;;5098921;28;20265;-56
2023/10/06 06:40:01;;;;;;;8.23;4.80;;;15.00;99.90;;;;;;5099476;28;20224;-55
2023/10/06 06:42:28;;;;;;;7.50;4.47;;;15.60;99.90;;;;;;5090823;28;20268;-55
2023/10/06 06:44:54;;;;;;;9.32;4.40;;;16.30;99.90;;;;;;5098213;28;20573;-58
2023/10/06 06:47:25;;;;;;;8.65;4.28;;;17.10;99.90;;;;;;5099468;28;20224;-56
2023/10/06 06:49:52;;;;;;;7.35;4.53;;;17.60;99.90;;;;;;5099288;28;20255;-56
2023/10/06 06:52:21;;;;;;;8.57;4.82;;;18.20;99.90;;;;;;5101419;28;20210;-58
2023/10/06 06:54:49;;;;;;;6.15;4.25;;;18.80;99.90;;;;;;5102296;28;20269;-57
2023/10/06 06:57:17;;;;;;;7.80;4.30;;;19.40;99.90;;;;;;5100239;28;20223;-58
2023/10/06 06:59:44;;;;;;;8.40;4.82;;;19.90;99.90;;;;;;5099166;28;20387;-58
2023/10/06 07:02:11;;;;;;;8.02;4.93;;;20.30;99.90;;;;;;5100211;28;20211;-56
2023/10/06 07:04:39;;;;;;;8.82;4.82;;;20.80;99.90;;;;;;5102393;28;20276;-55
2023/10/06 07:07:05;;;;;;;9.75;4.80;;;21.10;99.90;;;;;;5101183;28;20310;-56
2023/10/06 07:09:32;;;;;;;10.70;4.50;;;21.50;99.90;;;;;;5099973;28;20448;-54
2023/10/06 07:11:59;;;;;;;7.43;4.43;;;21.90;99.90;;;;;;5102386;28;20211;-56
2023/10/06 07:14:27;;;;;;;9.68;5.45;;;22.20;99.90;;;;;;5105801;28;20222;-55
2023/10/06 07:16:56;;;;;;;7.53;4.45;;;22.40;99.90;;;;;;5105699;28;20203;-55
2023/10/06 07:19:23;;;;;;;9.05;4.05;;;22.60;99.90;;;;;;5103261;28;20224;-57
2023/10/06 07:21:51;;;;;;;7.55;4.53;;;22.30;99.90;;;;;;5102140;28;20294;-55
2023/10/06 07:24:18;;;;;;;6.88;4.43;;;21.90;99.90;;;;;;5104297;28;20238;-56
2023/10/06 07:26:45;;;;;;;9.68;4.97;;;21.50;99.90;;;;;;5105175;28;20223;-57
2023/10/06 07:29:14;;;;;;;10.15;5.20;;;21.10;99.90;;;;;;5104195;28;20224;-55
2023/10/06 07:31:42;;;;;;;9.63;4.63;;;20.50;99.90;;;;;;5102036;28;20216;-55
2023/10/06 07:34:08;;;;;;;11.75;5.50;;;19.80;99.90;;;;;;5102933;28;20208;-55
2023/10/06 07:36:37;;;;;;;11.60;5.05;;;19.10;99.90;;;;;;5105536;28;20203;-55
2023/10/06 07:39:08;;;;;;;9.32;5.13;;;18.40;99.90;;;;;;5105679;28;20284;-59
2023/10/06 07:41:35;;;;;;;9.52;4.65;;;17.60;99.90;;;;;;5102508;28;20208;-54
2023/10/06 07:44:01;;;;;;;15.35;8.88;;;16.90;99.90;;;;;;5102640;28;20234;-59
2023/10/06 07:46:29;;;;;;;13.50;5.53;;;16.30;99.90;;;;;;5105496;28;20207;-54
2023/10/06 07:48:57;;;;;;;9.02;5.05;;;15.90;99.90;;;;;;5105909;28;20219;-54
2023/10/06 07:51:26;;;;;;;11.00;4.90;;;15.50;99.90;;;;;;5102702;28;20208;-54
2023/10/06 07:53:52;;;;;;;7.03;4.67;;;15.20;99.90;;;;;;5101931;28;20211;-54
2023/10/06 07:56:19;;;;;;;9.20;4.87;;;15.00;99.90;;;;;;5103981;28;20215;-57
2023/10/06 07:58:46;;;;;;;10.90;4.93;;;14.90;99.90;;;;;;5105029;28;20211;-54
2023/10/06 08:01:13;;;;;;;9.50;4.93;;;14.80;99.90;;;;;;5103674;28;20560;-53
2023/10/06 08:03:41;;;;;;;10.63;5.00;;;14.70;99.90;;;;;;5101682;28;20216;-53
2023/10/06 08:06:11;;;;;;;10.93;5.50;;;14.60;99.90;;;;;;5101791;28;20213;-55
2023/10/06 08:08:38;;;;;;;11.00;5.20;;;14.60;99.90;;;;;;5104554;28;20298;-53
2023/10/06 08:11:06;;;;;;;10.93;5.10;;;14.60;99.90;;;;;;5104898;28;20252;-54
2023/10/06 08:13:34;;;;;;;7.97;4.50;;;14.60;99.90;;;;;;5101290;28;20200;-53
2023/10/06 08:16:01;;;;;;;11.10;5.10;;;14.70;99.90;;;;;;5101392;28;20575;-54
2023/10/06 08:18:29;;;;;;;13.83;5.03;;;14.70;99.90;;;;;;5104421;28;20215;-56
2023/10/06 08:20:56;;;;;;;12.37;4.93;;;14.80;99.90;;;;;;5104159;28;20200;-54
2023/10/06 08:23:25;;;;;;;10.63;5.17;;;14.80;99.90;;;;;;5102315;28;20203;-53
2023/10/06 08:25:56;;;;;;;9.80;5.17;;;14.90;99.90;;;;;;5101037;28;20748;-54
2023/10/06 08:28:24;;;;;;;9.67;4.80;;;14.90;99.90;;;;;;5103274;28;20269;-54
2023/10/06 08:30:51;;;;;;;12.20;5.20;;;15.00;99.90;;;;;;5105012;28;20264;-54
2023/10/06 08:33:18;;;;;;;10.23;4.50;;;15.10;99.90;;;;;;5102709;28;20214;-53
2023/10/06 08:35:45;;;;;;;10.30;4.73;;;15.10;99.90;;;;;;5101197;28;20211;-53
2023/10/06 08:38:12;;;;;;;16.07;5.10;;;15.20;99.90;;;;;;5101960;28;20254;-54
2023/10/06 08:40:43;;;;;;;9.50;4.77;;;15.20;99.90;;;;;;5104483;28;20227;-55
2023/10/06 08:43:14;;;;;;;7.73;4.77;;;15.20;99.90;;;;;;5103383;28;20214;-54
2023/10/06 08:45:42;;;;;;;11.43;5.20;;;15.30;99.90;;;;;;5100583;28;20658;-54
2023/10/06 08:48:13;;;;;;;13.47;5.13;;;15.40;99.90;;;;;;5100783;28;20231;-54
2023/10/06 08:50:43;;;;;;;9.27;5.33;;;15.40;99.90;;;;;;5104154;28;20684;-57
2023/10/06 08:53:13;;;;;;;9.63;4.50;;;15.50;99.90;;;;;;5103140;28;20630;-55
2023/10/06 08:55:44;;;;;;;9.33;4.93;;;15.50;99.90;;;;;;5100274;28;20696;-54
2023/10/06 08:58:13;;;;;;;11.60;4.80;;;15.50;99.90;;;;;;5100994;28;20200;-55
2023/10/06 09:00:43;;;;;;;7.47;5.40;;;15.60;99.90;;;;;;5103769;28;20200;-54
2023/10/06 09:03:14;;;;;;;8.00;4.70;;;15.80;99.90;;;;;;5103617;28;20208;-55
2023/10/06 09:05:42;;;;;;;9.48;4.65;;;15.70;99.90;;;;;;5100866;28;20234;-56
2023/10/06 09:08:10;;;;;;;13.20;5.70;;;15.80;99.90;;;;;;5100669;28;20272;-56
2023/10/06 09:10:40;;;;;;;12.60;4.60;;;15.90;99.90;;;;;;5104252;28;20272;-54
2023/10/06 09:13:11;;;;;;;11.20;4.97;;;16.10;99.90;;;;;;5104326;28;20446;-55
2023/10/06 09:15:39;;;;;;;10.05;4.75;;;16.20;99.90;;;;;;5100341;28;20200;-54
2023/10/06 09:18:20;;;;;;;13.23;5.30;;;16.20;99.90;;;;;;5100419;28;20296;-55
2023/10/06 09:20:48;;;;;;;7.95;4.45;;;16.30;99.90;;;;;;5106222;28;20560;-57
2023/10/06 09:23:30;;;;;;;8.23;4.50;;;16.50;99.90;;;;;;5102320;28;20288;-56
2023/10/06 09:25:57;;;;;;;9.97;5.07;;;16.70;99.90;;;;;;5100412;28;20269;-55
2023/10/06 09:28:26;;;;;;;8.23;4.47;;;16.70;99.90;;;;;;5102046;28;20231;-55
2023/10/06 09:30:57;;;;;;;7.80;4.53;;;16.70;99.90;;;;;;5103405;28;20200;-55
2023/10/06 09:33:26;;;;;;;10.98;4.55;;;16.70;99.90;;;;;;5101120;28;20665;-55
2023/10/06 09:36:06;;;;;;;9.70;4.80;;;16.90;99.90;;;;;;5100177;28;20291;-55
2023/10/06 09:38:33;;;;;;;15.65;5.13;;;16.90;99.90;;;;;;5091335;28;20227;-55
2023/10/06 09:41:00;;;;;;;10.45;5.13;;;16.90;99.90;;;;;;5091859;28;20204;-55
2023/10/06 09:43:33;;;;;;;10.32;5.20;;;17.00;99.90;;;;;;5094216;28;20208;-55
2023/10/06 09:46:07;;;;;;;7.80;4.50;;;17.20;99.90;;;;;;5103629;28;20210;-58
2023/10/06 09:48:37;;;;;;;11.90;4.97;;;17.20;99.90;;;;;;5091428;28;20227;-55
2023/10/06 09:51:07;;;;;;;11.18;5.03;;;17.50;99.90;;;;;;5099613;28;20211;-57
2023/10/06 09:53:37;;;;;;;6.95;4.80;;;17.70;99.90;;;;;;5103590;28;20598;-55
2023/10/06 09:56:07;;;;;;;11.35;5.60;;;17.90;99.90;;;;;;5103319;28;20604;-55
2023/10/06 09:58:36;;;;;;;12.05;5.60;;;18.10;99.90;;;;;;5103565;28;20226;-57
2023/10/06 10:01:03;;;;;;;7.22;4.45;;;18.20;99.90;;;;;;5103253;28;20214;-55
2023/10/06 10:03:33;;;;;;;7.57;4.07;;;18.30;99.90;;;;;;5099772;28;20204;-55
2023/10/06 10:06:04;;;;;;;18.60;13.65;;;18.40;99.90;;;;;;5099471;28;20214;-56
2023/10/06 10:08:32;;;;;;;10.35;4.55;;;18.50;99.90;;;;;;5101862;28;20247;-54
2023/10/06 10:11:01;;;;;;;7.68;4.28;;;18.60;99.90;;;;;;5102558;28;20544;-55
2023/10/06 10:13:54;;;;;;;8.00;4.47;;;18.80;99.90;;;;;;5099477;28;20213;-55
2023/10/06 10:16:47;;;;;;;11.13;4.35;;;19.00;99.90;;;;;;5100839;28;20686;-54
2023/10/06 10:19:17;;;;;;;11.30;4.28;;;19.20;99.90;;;;;;5101555;28;20240;-55
2023/10/06 10:21:44;;;;;;;20.90;12.43;;;19.40;99.90;;;;;;5098850;28;20218;-55
2023/10/06 10:24:13;;;;;;;10.48;5.97;;;19.50;99.90;;;;;;5098947;28;20208;-55
2023/10/06 10:26:41;;;;;;;12.40;6.22;;;19.70;99.90;;;;;;5102165;28;20204;-55
2023/10/06 10:29:31;;;;;;;6.75;4.15;;;19.90;99.90;;;;;;5102195;28;20223;-55
2023/10/06 10:32:01;;;;;;;9.30;4.10;;;20.00;99.90;;;;;;5105638;28;20532;-55
2023/10/06 10:34:33;;;;;;;7.78;4.38;;;20.20;99.90;;;;;;5100499;28;20203;-54
2023/10/06 10:37:15;;;;;;;7.80;3.85;;;20.30;99.90;;;;;;5098948;28;20207;-57
2023/10/06 10:39:47;;;;;;;8.90;4.43;;;20.40;99.90;;;;;;5098099;28;20223;-54
2023/10/06 10:42:17;;;;;;;8.73;4.15;;;20.50;99.90;;;;;;5099256;28;20204;-55
2023/10/06 10:44:47;;;;;;;10.98;4.20;;;20.60;99.90;;;;;;5104497;28;20210;-54
2023/10/06 10:47:15;;;;;;;11.00;4.15;;;20.80;99.90;;;;;;5105902;28;20677;-55
2023/10/06 10:49:44;;;;;;;7.47;3.90;;;20.80;99.90;;;;;;5103242;28;20231;-55
2023/10/06 10:52:12;;;;;;;12.73;3.95;;;20.90;99.90;;;;;;5103323;28;20290;-55
2023/10/06 10:54:40;;;;;;;8.50;4.30;;;20.90;99.90;;;;;;5107407;28;20205;-54
2023/10/06 10:57:09;;;;;;;9.88;4.60;;;20.90;99.90;;;;;;5107505;28;20845;-56
2023/10/06 11:00:13;;;;;;;9.27;4.07;;;21.00;99.90;;;;;;5095254;28;20246;-55
2023/10/06 11:02:45;;;;;;;10.15;4.30;;;21.10;99.90;;;;;;5094576;28;20200;-54
2023/10/06 11:05:12;;;;;;;7.45;4.22;;;21.30;99.90;;;;;;5111623;28;20203;-56
2023/10/06 11:07:39;;;;;;;11.57;5.05;;;21.40;99.90;;;;;;5103139;28;20211;-55
2023/10/06 11:10:08;;;;;;;7.32;4.20;;;21.40;99.90;;;;;;5103537;28;20640;-55
2023/10/06 11:12:35;;;;;;;7.32;4.25;;;21.40;99.90;;;;;;5094534;28;20250;-54
2023/10/06 11:15:14;;;;;;;7.28;3.97;;;21.40;99.90;;;;;;5094749;28;20215;-56
2023/10/06 11:17:43;;;;;;;7.88;4.13;;;21.60;99.90;;;;;;5094343;28;20226;-55
2023/10/06 11:20:15;;;;;;;12.25;4.63;;;21.80;99.90;;;;;;5094230;28;20275;-56
2023/10/06 11:22:52;;;;;;;8.00;3.83;;;21.90;99.90;;;;;;5110319;28;20247;-56
2023/10/06 11:25:26;;;;;;;6.13;3.78;;;21.80;99.90;;;;;;5103143;28;20246;-55
2023/10/06 11:28:02;;;;;;;9.45;4.18;;;21.80;99.90;;;;;;5102688;28;20200;-54
2023/10/06 11:30:31;;;;;;;7.35;4.10;;;21.90;99.90;;;;;;5105779;28;20368;-55
2023/10/06 11:33:00;;;;;;;8.45;4.20;;;21.90;99.90;;;;;;5106841;28;20199;-56
2023/10/06 11:35:27;;;;;;;7.40;4.05;;;21.80;99.90;;;;;;5104057;28;20214;-55
2023/10/06 11:37:55;;;;;;;9.80;4.50;;;21.80;99.90;;;;;;5102260;28;20200;-55
2023/10/06 11:40:24;;;;;;;6.80;4.22;;;21.80;99.90;;;;;;5103754;28;20239;-55
2023/10/06 11:42:51;;;;;;;8.77;4.13;;;21.80;99.90;;;;;;5105877;28;20200;-55
2023/10/06 11:45:24;;;;;;;7.22;3.95;;;21.70;99.90;;;;;;5105040;28;20210;-55
2023/10/06 11:47:51;;;;;;;10.85;4.53;;;21.60;99.90;;;;;;5102579;28;20265;-54
2023/10/06 11:50:24;;;;;;;8.05;4.55;;;21.70;99.90;;;;;;5102875;28;20258;-56
2023/10/06 11:52:51;;;;;;;11.48;4.68;;;21.80;99.90;;;;;;5105755;28;20217;-55
2023/10/06 11:55:31;;;;;;;8.10;3.80;;;21.60;99.90;;;;;;5104680;28;20207;-55
2023/10/06 11:58:00;;;;;;;9.68;4.55;;;21.70;99.90;;;;;;5102181;28;20208;-55
2023/10/06 12:00:38;;;;;;;8.63;3.97;;;21.80;99.90;;;;;;5104159;28;20235;-55
2023/10/06 12:03:07;;;;;;;9.25;4.68;;;21.90;99.90;;;;;;5105702;28;20238;-55
2023/10/06 12:05:35;;;;;;;8.90;3.90;;;22.10;99.90;;;;;;5102156;28;20205;-55
2023/10/06 12:08:08;;;;;;;8.80;4.32;;;22.20;99.90;;;;;;5101476;28;20663;-56
2023/10/06 12:10:47;;;;;;;12.07;4.22;;;22.10;99.90;;;;;;5105448;28;20204;-55
2023/10/06 12:13:14;;;;;;;9.50;4.35;;;22.00;99.90;;;;;;5105058;28;20238;-56
2023/10/06 12:15:40;;;;;;;10.63;4.50;;;22.10;99.90;;;;;;5101794;28;20231;-58
2023/10/06 12:18:10;;;;;;;8.20;4.63;;;22.20;99.90;;;;;;5101221;28;20204;-56
2023/10/06 12:20:38;;;;;;;8.77;4.70;;;22.30;99.90;;;;;;5104956;28;20203;-57
2023/10/06 12:23:05;;;;;;;10.55;4.47;;;22.50;99.90;;;;;;5104996;28;20207;-56
2023/10/06 12:25:32;;;;;;;8.35;4.55;;;22.60;99.90;;;;;;5102562;28;20211;-56
2023/10/06 12:28:00;;;;;;;7.28;4.38;;;22.60;99.90;;;;;;5101440;28;20208;-57
2023/10/06 12:30:28;;;;;;;8.23;4.47;;;22.70;99.90;;;;;;5103695;28;20721;-55
2023/10/06 12:32:55;;;;;;;7.80;4.93;;;22.70;99.90;;;;;;5104553;28;20207;-57
2023/10/06 12:35:22;;;;;;;8.63;4.60;;;22.60;99.90;;;;;;5103225;28;20600;-56
2023/10/06 12:37:53;;;;;;;7.93;4.47;;;22.60;99.90;;;;;;5100918;28;20208;-55
2023/10/06 12:40:19;;;;;;;10.10;4.43;;;22.60;99.90;;;;;;5102055;28;20308;-56
2023/10/06 12:42:46;;;;;;;7.43;4.47;;;22.50;99.90;;;;;;5104732;28;20206;-56
2023/10/06 12:45:17;;;;;;;8.88;4.45;;;22.60;99.90;;;;;;5104027;28;20235;-55
2023/10/06 12:47:46;;;;;;;8.32;4.72;;;22.70;99.90;;;;;;5100597;28;20208;-58
2023/10/06 12:50:16;;;;;;;8.80;4.45;;;22.60;99.90;;;;;;5100678;28;20306;-57
2023/10/06 12:52:49;;;;;;;6.35;4.03;;;22.40;99.90;;;;;;5096966;28;20635;-59
2023/10/06 12:55:21;;;;;;;8.25;4.57;;;22.40;99.90;;;;;;5100390;28;20219;-62
2023/10/06 12:57:48;;;;;;;8.32;4.60;;;22.50;99.90;;;;;;5100240;28;20653;-61
2023/10/06 13:00:15;;;;;;;8.38;4.60;;;22.60;99.90;;;;;;5100474;28;20227;-60